TAM4548 SBGR-SBGL
Flight info
| Callsign | TAM4548 |
|---|---|
| Flight time | 0h 31m |
| Altitude | 25000 |
| Route | UREMI UZ42 VUREP |
| Aircraft | A20N/M-SDE3FGHIRWY/LB1 |
Departure
| Time | 2026-04-30 17:49 |
|---|---|
| Airport | São Paulo/Guarulhos–Governor André Franco Montoro International Airport (SBGR) |
Arrival
| Time | 2026-04-30 18:21 |
|---|---|
| Airport | Rio Galeão – Tom Jobim International Airport (SBGL) |
| Time | Latitude | Longitude | Altitude | Speed | Heading |
|---|---|---|---|---|---|
| 2026-04-30 17:39 | -23.42891 | -46.48222 | 2449 ft | 0 kts | 265° |
| 2026-04-30 17:42 | -23.42890 | -46.48213 | 2449 ft | 0 kts | 265° |
| 2026-04-30 17:42 | -23.42889 | -46.48189 | 2449 ft | 1 kts | 265° |
| 2026-04-30 17:43 | -23.42878 | -46.48169 | 2449 ft | 1 kts | 189° |
| 2026-04-30 17:44 | -23.42867 | -46.48170 | 2449 ft | 0 kts | 173° |
| 2026-04-30 17:47 | -23.43078 | -46.48130 | 2446 ft | 17 kts | 175° |
| 2026-04-30 17:48 | -23.43332 | -46.48359 | 2450 ft | 11 kts | 164° |
| 2026-04-30 17:48 | -23.43420 | -46.48299 | 2453 ft | 2 kts | 74° |
| 2026-04-30 17:49 | -23.42552 | -46.45051 | 3108 ft | 175 kts | 75° |
| 2026-04-30 17:50 | -23.41071 | -46.39196 | 4566 ft | 239 kts | 75° |
| 2026-04-30 17:51 | -23.39585 | -46.33408 | 6091 ft | 283 kts | 73° |
| 2026-04-30 17:52 | -23.37966 | -46.27145 | 8518 ft | 293 kts | 73° |
| 2026-04-30 17:53 | -23.35043 | -46.15853 | 11398 ft | 345 kts | 73° |
| 2026-04-30 17:54 | -23.32183 | -46.04814 | 12460 ft | 410 kts | 74° |
| 2026-04-30 17:55 | -23.28968 | -45.92449 | 14178 ft | 434 kts | 74° |
| 2026-04-30 17:56 | -23.25613 | -45.79588 | 16019 ft | 449 kts | 74° |
| 2026-04-30 17:57 | -23.23011 | -45.69648 | 17280 ft | 460 kts | 73° |
| 2026-04-30 17:58 | -23.20348 | -45.59504 | 18459 ft | 470 kts | 73° |
| 2026-04-30 17:59 | -23.16715 | -45.45711 | 19921 ft | 484 kts | 73° |
| 2026-04-30 18:00 | -23.12957 | -45.31495 | 21365 ft | 496 kts | 72° |
| 2026-04-30 18:00 | -23.10068 | -45.20610 | 22348 ft | 505 kts | 72° |
| 2026-04-30 18:01 | -23.08118 | -45.13284 | 23025 ft | 509 kts | 72° |
| 2026-04-30 18:02 | -23.05139 | -45.02121 | 23908 ft | 516 kts | 72° |
| 2026-04-30 18:02 | -23.02131 | -44.90877 | 24881 ft | 519 kts | 72° |
| 2026-04-30 18:03 | -22.99128 | -44.79687 | 25159 ft | 523 kts | 72° |
| 2026-04-30 18:04 | -22.96081 | -44.68371 | 25094 ft | 518 kts | 72° |
| 2026-04-30 18:05 | -22.92096 | -44.53625 | 21782 ft | 501 kts | 72° |
| 2026-04-30 18:06 | -22.88261 | -44.39473 | 18903 ft | 479 kts | 72° |
| 2026-04-30 18:07 | -22.84585 | -44.25970 | 16127 ft | 457 kts | 72° |
| 2026-04-30 18:08 | -22.81935 | -44.16270 | 14203 ft | 439 kts | 73° |
| 2026-04-30 18:09 | -22.78683 | -44.04403 | 11540 ft | 374 kts | 73° |
| 2026-04-30 18:10 | -22.75889 | -43.94237 | 10423 ft | 330 kts | 74° |
| 2026-04-30 18:11 | -22.73431 | -43.85305 | 9590 ft | 297 kts | 74° |
| 2026-04-30 18:11 | -22.71665 | -43.78893 | 8544 ft | 293 kts | 74° |
| 2026-04-30 18:12 | -22.69933 | -43.72625 | 7508 ft | 287 kts | 74° |
| 2026-04-30 18:13 | -22.68797 | -43.68515 | 6852 ft | 282 kts | 73° |
| 2026-04-30 18:13 | -22.67309 | -43.63142 | 5957 ft | 277 kts | 72° |
| 2026-04-30 18:14 | -22.66029 | -43.58543 | 5188 ft | 272 kts | 72° |
| 2026-04-30 18:15 | -22.64595 | -43.52656 | 4164 ft | 267 kts | 92° |
| 2026-04-30 18:15 | -22.67229 | -43.47461 | 3286 ft | 258 kts | 127° |
| 2026-04-30 18:16 | -22.69275 | -43.44529 | 3241 ft | 228 kts | 124° |
| 2026-04-30 18:16 | -22.71014 | -43.41897 | 3190 ft | 207 kts | 124° |
| 2026-04-30 18:17 | -22.71828 | -43.40652 | 3089 ft | 197 kts | 123° |
| 2026-04-30 18:17 | -22.72619 | -43.39443 | 2821 ft | 193 kts | 124° |
| 2026-04-30 18:17 | -22.74167 | -43.37086 | 2344 ft | 187 kts | 124° |
| 2026-04-30 18:18 | -22.74906 | -43.35965 | 2088 ft | 180 kts | 124° |
| 2026-04-30 18:18 | -22.75628 | -43.34869 | 1840 ft | 175 kts | 124° |
| 2026-04-30 18:18 | -22.76322 | -43.33816 | 1583 ft | 165 kts | 125° |
| 2026-04-30 18:18 | -22.76973 | -43.32831 | 1373 ft | 152 kts | 125° |
| 2026-04-30 18:19 | -22.77563 | -43.31937 | 1186 ft | 141 kts | 126° |
| 2026-04-30 18:19 | -22.78143 | -43.31069 | 976 ft | 139 kts | 126° |
| 2026-04-30 18:19 | -22.78723 | -43.30178 | 821 ft | 138 kts | 126° |
| 2026-04-30 18:19 | -22.79292 | -43.29311 | 676 ft | 138 kts | 126° |
| 2026-04-30 18:20 | -22.79848 | -43.28466 | 515 ft | 137 kts | 127° |
| 2026-04-30 18:20 | -22.80402 | -43.27627 | 374 ft | 137 kts | 127° |
| 2026-04-30 18:20 | -22.80969 | -43.26784 | 159 ft | 136 kts | 127° |
| 2026-04-30 18:20 | -22.81519 | -43.25960 | 27 ft | 129 kts | 127° |
| 2026-04-30 18:21 | -22.81956 | -43.25309 | 27 ft | 81 kts | 127° |
| 2026-04-30 18:21 | -22.82188 | -43.24958 | 28 ft | 39 kts | 126° |
| 2026-04-30 18:21 | -22.82324 | -43.24741 | 30 ft | 31 kts | 112° |
| 2026-04-30 18:21 | -22.82359 | -43.24527 | 31 ft | 22 kts | 91° |
| 2026-04-30 18:22 | -22.82272 | -43.24412 | 32 ft | 19 kts | 35° |
| 2026-04-30 18:22 | -22.82082 | -43.24389 | 33 ft | 15 kts | 304° |
| 2026-04-30 18:22 | -22.82021 | -43.24486 | 32 ft | 15 kts | 306° |
| 2026-04-30 18:23 | -22.81958 | -43.24577 | 32 ft | 14 kts | 304° |
| 2026-04-30 18:23 | -22.81888 | -43.24636 | 33 ft | 12 kts | 17° |
| 2026-04-30 18:23 | -22.81819 | -43.24585 | 34 ft | 11 kts | 33° |
| 2026-04-30 18:23 | -22.81760 | -43.24540 | 35 ft | 9 kts | 36° |
| 2026-04-30 18:24 | -22.81657 | -43.24520 | 36 ft | 6 kts | 341° |
| 2026-04-30 18:24 | -22.81624 | -43.24529 | 36 ft | 2 kts | 345° |
| 2026-04-30 18:24 | -22.81610 | -43.24533 | 37 ft | 1 kts | 345° |
| 2026-04-30 18:25 | -22.81608 | -43.24534 | 37 ft | 0 kts | 345° |